This is the latest recevied weather packets stored in our database for station/object NI2O. If no packets are shown the sender has not sent any weather packets the latest 10 day(s).
| Time | Temp. | Humidity | Pressure | Rain* | Wind** | Luminosity | Snow |
|---|---|---|---|---|---|---|---|
| 1777891205 | 7.22° C | 77% | 1014.2 hPa | 0 mm | - | 18 W/m² | - |
| 1777890551 | 6.67° C | 76% | 1014.3 hPa | 0 mm | - | 13 W/m² | - |
| 1777888730 | 7.22° C | 71% | 1014.1 hPa | 0 mm | - | 1 W/m² | - |
| 1777887482 | 7.78° C | 70% | 1014.2 hPa | 0 mm | - | 0 W/m² | - |
| 1777886294 | 7.22° C | 70% | 1014.3 hPa | 0 mm | - | 0 W/m² | - |
| 1777885661 | 7.22° C | 71% | 1014.1 hPa | 0 mm | - | 0 W/m² | - |
| 1777885027 | 7.78° C | 68% | 1014.2 hPa | 0 mm | - | 0 W/m² | - |
| 1777883800 | 7.78° C | 65% | 1014.1 hPa | 0 mm | - | 0 W/m² | - |
| 1777881364 | 8.33° C | 59% | 1013.9 hPa | 0 mm | - | 0 W/m² | - |
| 1777871524 | 7.78° C | 60% | 1013.9 hPa | 0 mm | - | 0 W/m² | - |
| 1777866000 | 8.33° C | 61% | 1013.4 hPa | 0 mm | - | 0 W/m² | - |
| 1777860515 | 10.56° C | 50% | 1013.4 hPa | 0 mm | - | 0 W/m² | - |
| 1777856486 | 12.22° C | 43% | 1012.7 hPa | 0 mm | - | 0 W/m² | - |
| 1777854050 | 13.33° C | 39% | 1012.3 hPa | 0 mm | - | 0 W/m² | - |
| 1777846667 | 15° C | 32% | 1011.8 hPa | 0 mm | - | 117 W/m² | - |
| 1777843006 | 15° C | 32% | 1011.6 hPa | 0 mm | - | 270 W/m² | - |
| 1777841451 | 15° C | 32% | 1011.5 hPa | 0 mm | - | 345 W/m² | - |
| 1777838404 | 14.44° C | 33% | 1011.9 hPa | 0 mm | - | 492 W/m² | - |
| 1777837156 | 13.89° C | 34% | 1012.1 hPa | 0 mm | - | 572 W/m² | - |
| 1777830094 | 11.67° C | 35% | 1012.9 hPa | 0 mm | - | 266 W/m² | - |
| 1777828866 | 11.11° C | 37% | 1013 hPa | 0 mm | - | 818 W/m² | - |
| 1777827639 | 11.11° C | 38% | 1012.7 hPa | 0 mm | - | 753 W/m² | - |
| 1777820887 | 9.44° C | 47% | 1013.6 hPa | 0 mm | - | 707 W/m² | - |
| 1777817819 | 8.33° C | 53% | 1013.8 hPa | 0 mm | - | 545 W/m² | - |
| 1777810455 | 6.67° C | 59% | 1013.2 hPa | 0 mm | - | 83 W/m² | - |
* Rain latest hour (hover to see other rain measurements)
** Current wind speed in m/s (hover to see current wind gust speed)